Terminal Aerodrome Forecast
Issued by NWS

Home | Current Version | Previous Version | Text Only | Print | Product List | Glossary On
Versions: 1 2 3 4 5 6 7 8 9 10 11 12 13
217
FTUS45 KABQ 200542
TAFROW
TAF
KROW 200542Z 2006/2106 25008KT 6SM -SHRA SCT025 BKN040
     FM201100 18009KT P6SM SCT005 SCT025
      TEMPO 2011/2014 BKN025
     FM201500 17009KT P6SM SCT025 BKN060
     FM201900 20012G18KT P6SM FEW200
     FM210000 20011KT P6SM SKC=

USA.gov is the U.S. government's official web portal to all federal, state and local government web resources and services.